createdAt,value
2018-05-15T00:00:54.772Z,62.93
2018-05-15T00:01:55.244Z,63.04
2018-05-15T00:02:55.715Z,63.10
2018-05-15T00:03:56.182Z,62.96
2018-05-15T00:04:56.654Z,63.04
2018-05-15T00:05:57.125Z,62.98
2018-05-15T00:06:57.597Z,62.98
2018-05-15T00:07:58.066Z,62.97
2018-05-15T00:08:58.541Z,62.92
2018-05-15T00:09:59.008Z,62.92
2018-05-15T00:10:59.486Z,62.86
2018-05-15T00:12:00.005Z,62.89
2018-05-15T00:13:00.426Z,62.89
2018-05-15T00:14:00.905Z,62.86
2018-05-15T00:15:01.366Z,62.88
2018-05-15T00:16:01.836Z,62.91
2018-05-15T00:17:02.360Z,62.99
2018-05-15T00:18:02.779Z,63.21
2018-05-15T00:19:03.250Z,63.21
2018-05-15T00:20:03.722Z,63.29
2018-05-15T00:21:04.193Z,63.43
2018-05-15T00:22:04.717Z,63.70
2018-05-15T00:23:05.138Z,63.64
2018-05-15T00:25:06.083Z,64.00
2018-05-15T00:26:06.555Z,64.11
2018-05-15T00:27:07.027Z,64.02
2018-05-15T00:28:07.499Z,63.89
2018-05-15T00:29:07.971Z,63.99
2018-05-15T00:30:08.446Z,63.88
2018-05-15T00:31:08.927Z,63.83
2018-05-15T00:32:09.388Z,63.82
2018-05-15T00:33:09.866Z,63.85
2018-05-15T00:34:10.335Z,63.82
2018-05-15T00:35:10.808Z,63.79
2018-05-15T00:36:11.280Z,63.76
2018-05-15T00:37:11.958Z,63.68
2018-05-15T00:38:12.229Z,63.73
2018-05-15T00:39:12.703Z,63.73
2018-05-15T00:40:13.177Z,63.73
2018-05-15T00:41:13.648Z,63.64
2018-05-15T00:42:14.122Z,63.68
2018-05-15T00:43:14.597Z,63.72
2018-05-15T00:44:15.070Z,63.67
2018-05-15T00:45:15.550Z,63.72
2018-05-15T00:46:16.017Z,63.75
2018-05-15T00:47:16.545Z,63.80
2018-05-15T00:48:16.965Z,63.80
2018-05-15T00:49:17.440Z,63.80
2018-05-15T00:50:17.914Z,63.77
2018-05-15T00:51:18.389Z,63.74
2018-05-15T00:52:18.860Z,63.71
2018-05-15T00:53:19.336Z,63.69
2018-05-15T00:54:19.813Z,63.68
2018-05-15T00:55:20.284Z,63.71
2018-05-15T00:57:21.275Z,63.71
2018-05-15T00:58:21.706Z,63.68
2018-05-15T00:59:22.183Z,63.73
2018-05-15T01:00:22.654Z,63.76
2018-05-15T01:01:23.132Z,63.84
2018-05-15T01:02:23.655Z,63.95
2018-05-15T01:03:24.081Z,63.89
2018-05-15T01:04:24.549Z,63.81
2018-05-15T01:05:25.021Z,63.94
2018-05-15T01:06:25.495Z,63.91
2018-05-15T01:07:25.967Z,64.08
2018-05-15T01:08:26.442Z,64.16
2018-05-15T01:09:26.911Z,64.05
2018-05-15T01:10:27.387Z,64.02
2018-05-15T01:11:27.856Z,64.04
2018-05-15T01:12:28.331Z,63.96
2018-05-15T01:14:29.271Z,64.07
2018-05-15T01:15:29.742Z,64.04
2018-05-15T01:16:30.210Z,63.98
2018-05-15T01:17:30.732Z,64.01
2018-05-15T01:18:31.154Z,63.98
2018-05-15T01:19:31.625Z,63.98
2018-05-15T01:20:32.093Z,63.92
2018-05-15T01:21:32.565Z,63.89
2018-05-15T01:22:33.037Z,63.95
2018-05-15T01:23:33.512Z,64.00
2018-05-15T01:24:33.977Z,64.05
2018-05-15T01:25:34.449Z,64.00
2018-05-15T01:26:34.918Z,64.08
2018-05-15T01:27:35.394Z,64.02
2018-05-15T01:28:35.857Z,64.02
2018-05-15T01:29:36.330Z,64.02
2018-05-15T01:30:36.802Z,64.05
2018-05-15T01:31:37.270Z,64.10
2018-05-15T01:32:37.942Z,64.10
2018-05-15T01:33:38.211Z,64.15
2018-05-15T01:34:38.681Z,64.10
2018-05-15T01:35:39.150Z,64.26
2018-05-15T01:36:39.620Z,64.15
2018-05-15T01:37:40.142Z,64.15
2018-05-15T01:38:40.567Z,64.12
2018-05-15T01:39:41.036Z,64.09
2018-05-15T01:40:41.505Z,64.14
2018-05-15T01:41:41.976Z,64.14
2018-05-15T01:42:42.454Z,64.17
2018-05-15T01:43:42.920Z,64.25
2018-05-15T01:44:43.389Z,64.17
2018-05-15T01:45:43.864Z,64.17
2018-05-15T01:46:44.334Z,64.14
2018-05-15T01:47:44.811Z,64.16
2018-05-15T01:48:45.280Z,64.08
2018-05-15T01:49:45.750Z,64.08
2018-05-15T01:50:46.222Z,64.05
2018-05-15T01:51:46.695Z,64.05
2018-05-15T01:52:47.166Z,64.05
2018-05-15T01:53:47.641Z,64.00
2018-05-15T01:54:48.111Z,64.10
2018-05-15T01:55:48.622Z,64.18
2018-05-15T01:56:49.053Z,64.59
2018-05-15T01:57:49.577Z,64.40
2018-05-15T01:58:50.000Z,64.56
2018-05-15T01:59:50.473Z,64.43
2018-05-15T02:00:50.946Z,64.40
2018-05-15T02:01:51.416Z,64.83
2018-05-15T02:02:51.895Z,64.53
2018-05-15T02:03:52.365Z,64.53
2018-05-15T02:04:52.836Z,64.53
2018-05-15T02:05:53.311Z,64.61
2018-05-15T02:06:53.782Z,64.59
2018-05-15T02:07:54.308Z,64.55
2018-05-15T02:08:54.729Z,64.53
2018-05-15T02:09:55.205Z,64.47
2018-05-15T02:10:55.678Z,64.52
2018-05-15T02:11:56.152Z,64.50
2018-05-15T02:12:56.674Z,64.55
2018-05-15T02:13:57.097Z,64.55
2018-05-15T02:14:57.576Z,64.52
2018-05-15T02:15:58.058Z,64.52
2018-05-15T02:16:58.521Z,64.57
2018-05-15T02:17:58.993Z,64.54
2018-05-15T02:18:59.472Z,64.63
2018-05-15T02:19:59.943Z,64.68
2018-05-15T02:21:00.417Z,64.65
2018-05-15T02:22:00.891Z,64.65
2018-05-15T02:23:01.364Z,64.62
2018-05-15T02:24:01.843Z,64.59
2018-05-15T02:25:02.311Z,64.60
2018-05-15T02:26:02.785Z,64.67
2018-05-15T02:27:03.463Z,64.62
2018-05-15T02:28:03.736Z,64.60
2018-05-15T02:29:04.208Z,64.59
2018-05-15T02:30:04.681Z,64.62
2018-05-15T02:31:05.159Z,64.59
2018-05-15T02:32:05.632Z,64.70
2018-05-15T02:33:06.103Z,64.64
2018-05-15T02:34:06.578Z,64.61
2018-05-15T02:35:07.053Z,64.61
2018-05-15T02:36:07.525Z,64.61
2018-05-15T02:37:07.997Z,64.69
2018-05-15T02:38:08.523Z,64.74
2018-05-15T02:39:08.943Z,64.91
2018-05-15T02:40:09.417Z,64.94
2018-05-15T02:41:09.886Z,64.91
2018-05-15T02:42:10.360Z,64.96
2018-05-15T02:43:10.832Z,64.90
2018-05-15T02:44:11.304Z,64.90
2018-05-15T02:45:11.773Z,65.04
2018-05-15T02:46:13.444Z,65.12
2018-05-15T02:47:12.718Z,65.04
2018-05-15T02:48:13.237Z,64.90
2018-05-15T02:49:13.663Z,65.01
2018-05-15T02:50:14.129Z,64.90
2018-05-15T02:51:14.600Z,64.84
2018-05-15T02:52:15.072Z,64.84
2018-05-15T02:53:15.594Z,64.84
2018-05-15T02:54:16.009Z,64.78
2018-05-15T02:55:16.480Z,64.78
2018-05-15T02:56:16.951Z,64.78
2018-05-15T02:57:17.426Z,64.86
2018-05-15T02:58:17.890Z,64.84
2018-05-15T02:59:18.363Z,64.83
2018-05-15T03:00:18.837Z,64.83
2018-05-15T03:01:19.300Z,64.89
2018-05-15T03:02:19.772Z,64.86
2018-05-15T03:03:20.293Z,64.91
2018-05-15T03:04:20.712Z,64.96
2018-05-15T03:05:21.182Z,64.94
2018-05-15T03:06:21.660Z,64.93
2018-05-15T03:07:22.123Z,64.99
2018-05-15T03:08:22.595Z,65.12
2018-05-15T03:09:23.064Z,65.04
2018-05-15T03:10:23.535Z,64.98
2018-05-15T03:11:24.006Z,64.96
2018-05-15T03:12:24.679Z,65.06
2018-05-15T03:13:25.002Z,65.07
2018-05-15T03:14:25.421Z,65.01
2018-05-15T03:15:25.891Z,65.03
2018-05-15T03:16:26.363Z,65.01
2018-05-15T03:17:26.831Z,65.01
2018-05-15T03:18:27.353Z,64.98
2018-05-15T03:19:27.775Z,65.00
2018-05-15T03:20:28.246Z,64.97
2018-05-15T03:21:28.718Z,64.98
2018-05-15T03:22:29.191Z,65.00
2018-05-15T03:23:29.660Z,65.03
2018-05-15T03:24:30.132Z,65.16
2018-05-15T03:25:30.608Z,65.13
2018-05-15T03:26:31.076Z,65.11
2018-05-15T03:27:31.550Z,65.10
2018-05-15T03:28:32.025Z,65.13
2018-05-15T03:29:32.494Z,65.08
2018-05-15T03:30:32.973Z,65.07
2018-05-15T03:31:33.438Z,65.05
2018-05-15T03:32:33.911Z,65.13
2018-05-15T03:33:34.385Z,65.10
2018-05-15T03:34:34.855Z,65.12
2018-05-15T03:35:35.327Z,65.20
2018-05-15T03:36:35.806Z,65.23
2018-05-15T03:37:36.275Z,65.20
2018-05-15T03:38:36.798Z,65.17
2018-05-15T03:39:37.221Z,65.15
2018-05-15T03:40:37.693Z,65.17
2018-05-15T03:41:38.166Z,65.20
2018-05-15T03:42:38.638Z,65.20
2018-05-15T03:43:39.110Z,65.17
2018-05-15T03:44:39.585Z,65.28
2018-05-15T03:45:40.059Z,65.19
2018-05-15T03:46:40.532Z,65.25
2018-05-15T03:47:41.005Z,65.22
2018-05-15T03:48:41.481Z,65.27
2018-05-15T03:49:41.950Z,65.24
2018-05-15T03:50:42.428Z,65.25
2018-05-15T03:51:42.901Z,65.22
2018-05-15T03:52:43.374Z,65.16
2018-05-15T03:53:43.895Z,65.16
2018-05-15T03:54:44.323Z,65.21
2018-05-15T03:55:44.795Z,65.24
2018-05-15T03:56:45.269Z,65.18
2018-05-15T03:57:45.741Z,65.19
2018-05-15T03:58:46.214Z,65.16
2018-05-15T03:59:46.693Z,65.18
2018-05-15T04:00:47.162Z,65.10
2018-05-15T04:01:47.635Z,65.13
2018-05-15T04:02:48.110Z,65.23
2018-05-15T04:03:48.583Z,65.37
2018-05-15T04:04:49.059Z,65.50
2018-05-15T04:05:49.532Z,65.69
2018-05-15T04:06:50.006Z,65.50
2018-05-15T04:07:50.481Z,65.48
2018-05-15T04:08:50.957Z,65.47
2018-05-15T04:09:51.431Z,65.42
2018-05-15T04:10:51.972Z,65.45
2018-05-15T04:11:52.379Z,65.44
2018-05-15T04:12:52.852Z,65.53
2018-05-15T04:13:53.333Z,65.47
2018-05-15T04:14:53.800Z,65.42
2018-05-15T04:15:54.275Z,65.47
2018-05-15T04:16:54.749Z,65.44
2018-05-15T04:17:55.227Z,65.38
2018-05-15T04:18:55.746Z,65.36
2018-05-15T04:19:56.169Z,65.30
2018-05-15T04:20:56.643Z,65.38
2018-05-15T04:21:57.116Z,65.41
2018-05-15T04:22:57.590Z,65.43
2018-05-15T04:23:58.060Z,65.38
2018-05-15T04:24:58.533Z,65.30
2018-05-15T04:25:59.005Z,65.35
2018-05-15T04:26:59.476Z,65.35
2018-05-15T04:27:59.959Z,65.35
2018-05-15T04:29:00.484Z,65.37
2018-05-15T04:30:00.892Z,65.37
2018-05-15T04:31:01.364Z,65.43
2018-05-15T04:32:01.834Z,65.43
2018-05-15T04:33:02.307Z,65.42
2018-05-15T04:34:02.779Z,65.39
2018-05-15T04:35:03.318Z,65.40
2018-05-15T04:36:03.716Z,65.42
2018-05-15T04:37:04.187Z,65.31
2018-05-15T04:38:04.657Z,65.42
2018-05-15T04:39:05.126Z,65.42
2018-05-15T04:40:05.597Z,65.42
2018-05-15T04:41:06.066Z,65.52
2018-05-15T04:42:06.537Z,65.49
2018-05-15T04:43:07.007Z,65.50
2018-05-15T04:44:07.528Z,65.52
2018-05-15T04:45:07.948Z,65.51
2018-05-15T04:46:08.418Z,65.55
2018-05-15T04:47:08.887Z,65.63
2018-05-15T04:48:09.363Z,65.57
2018-05-15T04:49:09.833Z,65.62
2018-05-15T04:50:10.297Z,65.70
2018-05-15T04:51:10.771Z,65.78
2018-05-15T04:52:11.239Z,65.81
2018-05-15T04:53:11.709Z,65.72
2018-05-15T04:54:12.230Z,65.80
2018-05-15T04:55:12.651Z,65.83
2018-05-15T04:56:13.122Z,65.83
2018-05-15T04:57:13.590Z,65.91
2018-05-15T04:58:14.063Z,65.90
2018-05-15T04:59:14.586Z,65.85
2018-05-15T05:00:15.006Z,65.80
2018-05-15T05:01:15.475Z,65.77
2018-05-15T05:02:15.945Z,65.77
2018-05-15T05:03:16.415Z,65.74
2018-05-15T05:04:16.939Z,65.71
2018-05-15T05:05:17.359Z,65.68
2018-05-15T05:06:17.830Z,65.71
2018-05-15T05:07:18.302Z,65.68
2018-05-15T05:08:18.775Z,65.74
2018-05-15T05:09:19.297Z,65.65
2018-05-15T05:10:19.717Z,65.74
2018-05-15T05:11:20.189Z,65.71
2018-05-15T05:12:20.660Z,65.81
2018-05-15T05:13:21.132Z,65.73
2018-05-15T05:14:21.605Z,65.84
2018-05-15T05:15:22.076Z,65.89
2018-05-15T05:16:22.547Z,65.86
2018-05-15T05:17:23.021Z,65.83
2018-05-15T05:18:23.493Z,65.86
2018-05-15T05:19:23.966Z,65.86
2018-05-15T05:20:24.439Z,65.83
2018-05-15T05:21:24.911Z,65.85
2018-05-15T05:22:25.381Z,65.83
2018-05-15T05:23:25.855Z,65.88
2018-05-15T05:24:26.377Z,65.85
2018-05-15T05:25:26.801Z,65.85
2018-05-15T05:26:27.273Z,65.80
2018-05-15T05:27:27.746Z,65.85
2018-05-15T05:28:28.219Z,65.85
2018-05-15T05:29:28.693Z,65.82
2018-05-15T05:30:29.163Z,65.82
2018-05-15T05:31:29.637Z,65.77
2018-05-15T05:32:30.111Z,65.74
2018-05-15T05:33:30.587Z,65.79
2018-05-15T05:34:31.057Z,65.84
2018-05-15T05:35:31.529Z,65.77
2018-05-15T05:36:32.003Z,65.84
2018-05-15T05:37:32.477Z,65.84
2018-05-15T05:38:32.955Z,65.84
2018-05-15T05:39:33.422Z,65.95
2018-05-15T05:40:33.896Z,65.85
2018-05-15T05:41:34.371Z,65.79
2018-05-15T05:42:34.844Z,65.76
2018-05-15T05:43:35.315Z,65.81
2018-05-15T05:44:35.792Z,65.81
2018-05-15T05:45:36.264Z,65.76
2018-05-15T05:46:36.739Z,65.73
2018-05-15T05:47:37.211Z,65.65
2018-05-15T05:48:37.687Z,65.65
2018-05-15T05:49:38.207Z,65.81
2018-05-15T05:50:38.631Z,65.89
2018-05-15T05:51:39.105Z,65.84
2018-05-15T05:52:39.580Z,65.81
2018-05-15T05:53:40.053Z,66.02
2018-05-15T05:54:40.577Z,65.97
2018-05-15T05:55:40.999Z,66.02
2018-05-15T05:56:41.473Z,66.07
2018-05-15T05:57:41.948Z,66.02
2018-05-15T05:58:42.424Z,65.97
2018-05-15T05:59:42.946Z,65.93
2018-05-15T06:00:43.369Z,65.99
2018-05-15T06:01:43.843Z,66.12
2018-05-15T06:02:44.316Z,66.23
2018-05-15T06:03:44.792Z,66.17
2018-05-15T06:04:45.265Z,66.20
2018-05-15T06:05:45.744Z,66.15
2018-05-15T06:06:46.214Z,66.14
2018-05-15T06:07:46.689Z,66.25
2018-05-15T06:08:47.163Z,66.22
2018-05-15T06:09:47.636Z,66.30
2018-05-15T06:10:48.111Z,66.14
2018-05-15T06:11:48.584Z,66.16
2018-05-15T06:12:49.059Z,66.27
2018-05-15T06:13:49.533Z,66.14
2018-05-15T06:14:50.006Z,66.27
2018-05-15T06:15:50.481Z,66.46
2018-05-15T06:16:50.955Z,66.42
2018-05-15T06:17:51.428Z,66.38
2018-05-15T06:18:51.902Z,66.51
2018-05-15T06:19:52.385Z,66.48
2018-05-15T06:20:52.858Z,66.67
2018-05-15T06:21:53.328Z,66.59
2018-05-15T06:22:53.801Z,66.47
2018-05-15T06:23:54.272Z,66.51
2018-05-15T06:24:54.747Z,66.58
2018-05-15T06:25:55.223Z,66.69
2018-05-15T06:26:55.695Z,66.63
2018-05-15T06:27:56.172Z,66.63
2018-05-15T06:28:56.645Z,66.74
2018-05-15T06:29:57.169Z,66.76
2018-05-15T06:30:57.593Z,66.85
2018-05-15T06:31:58.067Z,66.92
2018-05-15T06:32:58.542Z,66.79
2018-05-15T06:33:59.014Z,66.79
2018-05-15T06:34:59.536Z,66.89
2018-05-15T06:35:59.962Z,66.79
2018-05-15T06:37:00.433Z,66.82
2018-05-15T06:38:00.904Z,66.81
2018-05-15T06:39:01.382Z,66.89
2018-05-15T06:40:01.900Z,67.00
2018-05-15T06:41:02.321Z,66.95
2018-05-15T06:42:02.795Z,66.84
2018-05-15T06:43:03.265Z,66.94
2018-05-15T06:44:03.739Z,66.91
2018-05-15T06:45:04.207Z,66.97
2018-05-15T06:46:04.682Z,67.02
2018-05-15T06:47:05.151Z,67.02
2018-05-15T06:48:05.619Z,67.05
2018-05-15T06:49:06.091Z,66.91
2018-05-15T06:50:06.561Z,66.78
2018-05-15T06:51:07.037Z,66.75
2018-05-15T06:52:07.502Z,66.89
2018-05-15T06:53:07.972Z,66.80
2018-05-15T06:54:08.446Z,66.74
2018-05-15T06:55:08.963Z,66.78
2018-05-15T06:56:09.383Z,66.89
2018-05-15T06:57:09.852Z,66.82
2018-05-15T06:58:10.324Z,66.85
2018-05-15T06:59:10.793Z,66.77
2018-05-15T07:00:11.265Z,66.77
2018-05-15T07:01:11.733Z,66.77
2018-05-15T07:02:12.208Z,66.80
2018-05-15T07:03:12.674Z,66.75
2018-05-15T07:04:13.144Z,66.93
2018-05-15T07:05:13.617Z,66.83
2018-05-15T07:06:14.087Z,66.80
2018-05-15T07:07:14.555Z,66.74
2018-05-15T07:08:15.026Z,66.77
2018-05-15T07:09:15.495Z,66.77
2018-05-15T07:10:15.967Z,66.86
2018-05-15T07:11:16.437Z,66.85
2018-05-15T07:12:16.906Z,66.67
2018-05-15T07:13:17.379Z,66.72
2018-05-15T07:14:17.857Z,66.72
2018-05-15T07:15:18.322Z,66.64
2018-05-15T07:16:18.869Z,66.63
2018-05-15T07:17:19.264Z,66.69
2018-05-15T07:18:19.935Z,66.79
2018-05-15T07:19:20.203Z,66.69
2018-05-15T07:20:20.678Z,66.69
2018-05-15T07:21:21.147Z,66.64
2018-05-15T07:22:21.618Z,66.72
2018-05-15T07:23:22.093Z,66.74
2018-05-15T07:24:22.560Z,66.74
2018-05-15T07:25:23.033Z,66.79
2018-05-15T07:26:23.504Z,66.77
2018-05-15T07:27:24.067Z,66.72
2018-05-15T07:28:24.448Z,66.69
2018-05-15T07:29:24.923Z,66.77
2018-05-15T07:30:25.391Z,66.69
2018-05-15T07:31:25.862Z,66.72
2018-05-15T07:32:26.336Z,66.71
2018-05-15T07:33:26.811Z,66.74
2018-05-15T07:34:27.283Z,66.74
2018-05-15T07:35:27.752Z,66.72
2018-05-15T07:36:28.224Z,66.58
2018-05-15T07:37:28.698Z,66.58
2018-05-15T07:38:29.171Z,66.71
2018-05-15T07:39:29.646Z,66.84
2018-05-15T07:40:30.117Z,66.82
2018-05-15T07:41:30.588Z,66.82
2018-05-15T07:42:31.059Z,66.93
2018-05-15T07:43:31.534Z,66.87
2018-05-15T07:44:32.008Z,66.69
2018-05-15T07:45:32.529Z,66.77
2018-05-15T07:46:32.952Z,66.93
2018-05-15T07:47:33.425Z,66.90
2018-05-15T07:48:33.901Z,67.00
2018-05-15T07:49:34.371Z,66.98
2018-05-15T07:50:34.894Z,67.04
2018-05-15T07:51:35.316Z,66.98
2018-05-15T07:52:35.790Z,67.04
2018-05-15T07:53:36.271Z,66.93
2018-05-15T07:54:36.738Z,66.91
2018-05-15T07:55:37.260Z,66.98
2018-05-15T07:56:37.794Z,66.85
2018-05-15T07:57:38.155Z,66.90
2018-05-15T07:58:38.632Z,66.95
2018-05-15T07:59:39.103Z,66.93
2018-05-15T08:00:39.627Z,66.99
2018-05-15T08:01:40.051Z,66.98
2018-05-15T08:02:40.524Z,66.88
2018-05-15T08:03:40.997Z,66.85
2018-05-15T08:04:41.474Z,66.80
2018-05-15T08:05:41.995Z,66.72
2018-05-15T08:06:42.419Z,66.86
2018-05-15T08:07:42.893Z,67.01
2018-05-15T08:08:43.370Z,67.15
2018-05-15T08:09:43.840Z,67.10
2018-05-15T08:10:44.313Z,67.10
2018-05-15T08:11:44.789Z,67.02
2018-05-15T08:12:45.261Z,67.05
2018-05-15T08:13:45.738Z,67.21
2018-05-15T08:14:46.210Z,67.19
2018-05-15T08:15:46.684Z,67.35
2018-05-15T08:16:47.157Z,67.35
2018-05-15T08:17:47.632Z,67.38
2018-05-15T08:18:48.106Z,67.27
2018-05-15T08:19:48.580Z,67.27
2018-05-15T08:20:49.054Z,67.22
2018-05-15T08:22:45.282Z,67.20
2018-05-15T08:23:45.758Z,67.04
2018-05-15T08:24:46.233Z,67.04
2018-05-15T08:25:46.705Z,67.20
2018-05-15T08:26:47.250Z,67.22
2018-05-15T08:27:47.651Z,67.31
2018-05-15T08:28:48.124Z,67.22
2018-05-15T08:29:48.602Z,67.17
2018-05-15T08:30:49.127Z,67.10
2018-05-15T08:31:49.552Z,67.02
2018-05-15T08:32:50.024Z,66.91
2018-05-15T08:33:50.498Z,66.86
2018-05-15T08:34:50.971Z,66.89
2018-05-15T08:35:51.448Z,66.81
2018-05-15T08:36:51.919Z,66.87
2018-05-15T08:37:52.396Z,66.84
2018-05-15T08:38:52.871Z,66.79
2018-05-15T08:39:53.686Z,66.81
2018-05-15T08:40:53.821Z,66.82
2018-05-15T08:41:54.342Z,66.76
2018-05-15T08:42:54.765Z,66.68
2018-05-15T08:43:55.238Z,66.53
2018-05-15T08:44:55.711Z,66.53
2018-05-15T08:45:56.185Z,66.61
2018-05-15T08:46:56.660Z,66.56
2018-05-15T08:47:57.133Z,66.51
2018-05-15T08:48:57.604Z,66.51
2018-05-15T08:49:58.078Z,66.51
2018-05-15T08:50:58.549Z,66.46
2018-05-15T08:51:59.021Z,66.51
2018-05-15T08:52:59.493Z,66.59
2018-05-15T08:53:59.968Z,66.51
2018-05-15T08:55:00.437Z,66.41
2018-05-15T08:56:00.908Z,66.33
2018-05-15T08:57:01.383Z,66.36
2018-05-15T08:58:01.849Z,66.28
2018-05-15T08:59:02.320Z,66.20
2018-05-15T09:00:02.794Z,66.26
2018-05-15T09:01:03.264Z,66.26
2018-05-15T09:02:03.737Z,66.21
2018-05-15T09:03:04.205Z,66.16
2018-05-15T09:04:04.673Z,66.08
2018-05-15T09:06:05.615Z,66.03
2018-05-15T09:07:06.136Z,66.00
2018-05-15T09:08:06.557Z,66.03
2018-05-15T09:09:07.027Z,66.06
2018-05-15T09:10:07.502Z,65.95
2018-05-15T09:11:07.969Z,65.90
2018-05-15T09:12:08.440Z,65.85
2018-05-15T09:13:08.911Z,66.01
2018-05-15T09:14:09.380Z,65.93
2018-05-15T09:15:09.850Z,65.90
2018-05-15T09:16:10.319Z,66.04
2018-05-15T09:17:10.792Z,66.01
2018-05-15T09:18:11.272Z,66.39
2018-05-15T09:19:11.834Z,66.23
2018-05-15T09:20:12.203Z,66.10
2018-05-15T09:21:12.674Z,66.13
2018-05-15T09:22:13.147Z,66.13
2018-05-15T09:23:13.615Z,66.08
2018-05-15T09:24:14.087Z,66.16
2018-05-15T09:25:14.562Z,66.13
2018-05-15T09:26:15.033Z,66.13
2018-05-15T09:27:15.503Z,66.27
2018-05-15T09:28:15.974Z,66.24
2018-05-15T09:29:16.534Z,66.43
2018-05-15T09:30:16.917Z,66.46
2018-05-15T09:31:17.389Z,66.27
2018-05-15T09:32:17.861Z,66.19
2018-05-15T09:33:18.335Z,66.30
2018-05-15T09:34:18.805Z,66.25
2018-05-15T09:35:19.278Z,66.22
2018-05-15T09:36:19.824Z,66.14
2018-05-15T09:37:20.272Z,66.14
2018-05-15T09:38:20.695Z,66.03
2018-05-15T09:39:21.168Z,66.03
2018-05-15T09:40:21.645Z,66.01
2018-05-15T09:41:22.113Z,66.03
2018-05-15T09:42:22.587Z,66.00
2018-05-15T09:43:23.060Z,65.95
2018-05-15T09:44:23.532Z,65.98
2018-05-15T09:45:24.006Z,65.90
2018-05-15T09:46:24.480Z,65.90
2018-05-15T09:47:25.002Z,65.85
2018-05-15T09:48:25.421Z,65.90
2018-05-15T09:49:25.898Z,65.93
2018-05-15T09:50:26.370Z,65.96
2018-05-15T09:51:26.843Z,65.93
2018-05-15T09:52:27.368Z,65.94
2018-05-15T09:53:27.790Z,65.91
2018-05-15T09:54:28.262Z,65.96
2018-05-15T09:55:28.738Z,65.88
2018-05-15T09:56:29.211Z,65.80
2018-05-15T09:57:29.735Z,65.83
2018-05-15T09:58:30.159Z,65.89
2018-05-15T09:59:30.633Z,66.00
2018-05-15T10:00:31.109Z,65.95
2018-05-15T10:01:31.582Z,66.00
2018-05-15T10:02:32.055Z,66.03
2018-05-15T10:03:32.543Z,65.95
2018-05-15T10:04:33.002Z,65.90
2018-05-15T10:05:33.478Z,66.02
2018-05-15T10:06:33.951Z,66.10
2018-05-15T10:07:34.558Z,66.08
2018-05-15T10:08:34.903Z,66.02
2018-05-15T10:09:35.378Z,66.13
2018-05-15T10:10:35.850Z,66.06
2018-05-15T10:11:36.327Z,66.03
2018-05-15T10:12:36.848Z,66.03
2018-05-15T10:13:37.273Z,66.22
2018-05-15T10:14:37.748Z,66.09
2018-05-15T10:15:38.224Z,65.94
2018-05-15T10:16:38.696Z,65.97
2018-05-15T10:17:39.171Z,65.94
2018-05-15T10:18:39.648Z,66.05
2018-05-15T10:19:40.121Z,65.94
2018-05-15T10:20:40.594Z,65.94
2018-05-15T10:21:41.072Z,65.92
2018-05-15T10:22:41.572Z,65.84
2018-05-15T10:23:42.222Z,65.95
2018-05-15T10:24:42.492Z,65.93
2018-05-15T10:25:42.965Z,65.90
2018-05-15T10:26:43.439Z,65.80
2018-05-15T10:27:43.911Z,65.75
2018-05-15T10:28:44.387Z,65.77
2018-05-15T10:29:44.867Z,65.78
2018-05-15T10:30:45.338Z,65.86
2018-05-15T10:31:45.804Z,65.86
2018-05-15T10:32:46.276Z,65.86
2018-05-15T10:33:46.746Z,65.84
2018-05-15T10:34:47.219Z,65.81
2018-05-15T10:35:47.690Z,65.81
2018-05-15T10:36:48.161Z,65.73
2018-05-15T10:37:48.633Z,65.76
2018-05-15T10:38:49.107Z,65.73
2018-05-15T10:39:49.576Z,65.71
2018-05-15T10:40:50.053Z,65.71
2018-05-15T10:41:50.518Z,65.76
2018-05-15T10:42:50.993Z,65.66
2018-05-15T10:43:51.469Z,65.72
2018-05-15T10:44:51.929Z,65.66
2018-05-15T10:45:52.400Z,65.58
2018-05-15T10:46:52.871Z,65.51
2018-05-15T10:47:53.341Z,65.64
2018-05-15T10:48:53.811Z,65.62
2018-05-15T10:49:54.283Z,65.49
2018-05-15T10:50:54.757Z,65.65
2018-05-15T10:51:55.224Z,65.68
2018-05-15T10:52:55.745Z,65.71
2018-05-15T10:53:56.166Z,65.69
2018-05-15T10:54:56.637Z,65.71
2018-05-15T10:55:57.111Z,65.69
2018-05-15T10:56:57.581Z,65.64
2018-05-15T10:57:58.049Z,65.62
2018-05-15T10:58:58.522Z,65.54
2018-05-15T10:59:58.992Z,65.62
2018-05-15T11:00:59.464Z,65.73
2018-05-15T11:01:59.935Z,65.84
2018-05-15T11:03:00.464Z,65.74
2018-05-15T11:04:00.880Z,65.74
2018-05-15T11:05:01.353Z,65.72
2018-05-15T11:06:01.875Z,65.56
2018-05-15T11:07:02.304Z,65.56
2018-05-15T11:08:02.770Z,65.54
2018-05-15T11:09:03.238Z,65.71
2018-05-15T11:10:03.714Z,65.71
2018-05-15T11:11:04.388Z,65.85
2018-05-15T11:12:04.664Z,65.77
2018-05-15T11:13:05.132Z,65.72
2018-05-15T11:14:05.604Z,65.78
2018-05-15T11:15:06.077Z,65.81
2018-05-15T11:16:06.555Z,65.76
2018-05-15T11:17:07.024Z,65.79
2018-05-15T11:18:07.499Z,65.80
2018-05-15T11:19:07.973Z,65.88
2018-05-15T11:20:08.445Z,65.89
2018-05-15T11:21:08.918Z,65.84
2018-05-15T11:22:09.397Z,65.84
2018-05-15T11:23:09.867Z,65.85
2018-05-15T11:24:10.343Z,65.83
2018-05-15T11:25:10.815Z,65.86
2018-05-15T11:26:11.290Z,65.82
2018-05-15T11:27:11.767Z,65.93
2018-05-15T11:28:12.290Z,65.83
2018-05-15T11:29:12.714Z,65.75
2018-05-15T11:30:13.188Z,65.73
2018-05-15T11:31:13.666Z,65.69
2018-05-15T11:32:14.140Z,65.64
2018-05-15T11:33:14.614Z,65.64
2018-05-15T11:34:15.089Z,65.54
2018-05-15T11:35:15.564Z,65.44
2018-05-15T11:36:16.040Z,65.47
2018-05-15T11:37:16.517Z,65.51
2018-05-15T11:38:17.041Z,65.27
2018-05-15T11:39:17.463Z,65.17
2018-05-15T11:40:17.975Z,65.17
2018-05-15T11:41:18.413Z,65.26
2018-05-15T11:42:18.887Z,65.21
2018-05-15T11:43:19.362Z,65.11
2018-05-15T11:44:19.839Z,65.01
2018-05-15T11:45:20.310Z,65.04
2018-05-15T11:46:20.788Z,65.00
2018-05-15T11:47:21.492Z,64.92
2018-05-15T11:48:22.333Z,64.90
2018-05-15T11:49:23.156Z,64.69
2018-05-15T11:50:23.576Z,64.64
2018-05-15T11:51:23.497Z,64.62
2018-05-15T11:52:24.367Z,64.57
2018-05-15T11:53:24.148Z,64.52
2018-05-15T11:54:24.574Z,64.45
2018-05-15T11:55:25.041Z,64.46
2018-05-15T11:56:25.581Z,64.41
2018-05-15T11:57:25.984Z,64.53
2018-05-15T11:58:26.456Z,64.32
2018-05-15T11:59:26.928Z,64.18
2018-05-15T12:00:27.400Z,64.22
2018-05-15T12:01:27.869Z,64.20
2018-05-15T12:02:28.446Z,64.07
2018-05-15T12:03:28.815Z,63.99
2018-05-15T12:04:29.287Z,64.00
2018-05-15T12:05:29.758Z,63.98
2018-05-15T12:06:30.245Z,63.85
2018-05-15T12:07:30.703Z,63.80
2018-05-15T12:08:31.325Z,63.75
2018-05-15T12:09:31.642Z,63.63
2018-05-15T12:10:32.187Z,63.63
2018-05-15T12:11:32.587Z,63.64
2018-05-15T12:12:33.060Z,63.61
2018-05-15T12:13:33.583Z,63.63
2018-05-15T12:15:34.476Z,63.47
2018-05-15T12:16:34.948Z,63.37
2018-05-15T12:17:35.421Z,63.35
2018-05-15T12:19:36.365Z,63.11
2018-05-15T12:20:36.839Z,63.01
2018-05-15T12:21:37.311Z,62.93
2018-05-15T12:22:37.784Z,62.82
2018-05-15T12:23:38.258Z,62.77
2018-05-15T12:24:38.797Z,62.72
2018-05-15T12:25:39.203Z,62.61
2018-05-15T12:26:39.676Z,62.48
2018-05-15T12:27:40.150Z,62.45
2018-05-15T12:28:40.676Z,62.32
2018-05-15T12:29:41.098Z,62.24
2018-05-15T12:30:41.573Z,62.16
2018-05-15T12:32:42.521Z,62.11
2018-05-15T12:33:42.994Z,62.06
2018-05-15T12:34:43.468Z,62.00
2018-05-15T12:35:43.954Z,61.92
2018-05-15T12:36:44.494Z,61.95
2018-05-15T12:37:44.893Z,61.85
2018-05-15T12:38:45.371Z,61.79
2018-05-15T12:39:45.844Z,61.74
2018-05-15T12:40:46.318Z,61.68
2018-05-15T12:41:46.862Z,61.60
2018-05-15T12:42:47.268Z,61.49
2018-05-15T12:43:47.744Z,61.46
2018-05-15T12:44:48.219Z,61.46
2018-05-15T12:45:48.694Z,61.33
2018-05-15T12:47:49.849Z,61.33
2018-05-15T12:48:50.211Z,61.28
2018-05-15T12:49:50.592Z,61.14
2018-05-15T12:50:51.070Z,61.18
2018-05-15T12:51:51.543Z,61.18
2018-05-15T12:52:52.018Z,61.24
2018-05-15T12:53:52.492Z,61.10
2018-05-15T12:54:52.966Z,61.04
2018-05-15T12:55:53.440Z,60.99
2018-05-15T12:56:54.116Z,60.96
2018-05-15T12:57:54.387Z,60.96
2018-05-15T12:58:55.115Z,61.00
2018-05-15T12:59:55.339Z,60.97
2018-05-15T13:00:55.807Z,60.94
2018-05-15T13:01:56.279Z,60.80
2018-05-15T13:02:56.751Z,60.60
2018-05-15T13:03:57.229Z,60.75
2018-05-15T13:04:57.698Z,60.78
2018-05-15T13:05:58.170Z,60.78
2018-05-15T13:06:58.645Z,60.70
2018-05-15T13:07:59.115Z,60.67